Time;durP1;ratioP1;P1;durP2;ratioP2;P2;SDS_P1;SDS_P2;PMS_P1;PMS_P2;Temp;Humidity;BMP_temperature;BMP_pressure;BME280_temperature;BME280_humidity;BME280_pressure;Samples;Min_cycle;Max_cycle;Signal;HPM_P1;HPM_P2
2022/09/15 00:01:10;;;;;;;;;0.50;0.00;;;;;20.91;69.11;100134.22;5092671;27;45196;-59
2022/09/15 00:03:36;;;;;;;;;1.00;1.00;;;;;20.89;68.96;100121.88;5081860;27;45323;-62
2022/09/15 00:06:02;;;;;;;;;2.00;2.00;;;;;20.96;69.05;100125.59;5078956;27;45405;-57
2022/09/15 00:08:28;;;;;;;;;2.00;2.00;;;;;20.99;68.55;100122.59;5088461;27;45991;-56
2022/09/15 00:10:57;;;;;;;;;2.00;2.00;;;;;21.01;68.65;100128.66;5099169;27;45272;-57
2022/09/15 00:13:24;;;;;;;;;1.25;1.25;;;;;20.87;68.73;100124.75;5098861;27;45418;-58
2022/09/15 00:15:50;;;;;;;;;1.75;1.75;;;;;20.91;68.64;100130.66;5087917;27;45443;-57
2022/09/15 00:18:16;;;;;;;;;2.00;2.00;;;;;20.83;68.51;100112.56;5078471;28;46241;-59
2022/09/15 00:20:43;;;;;;;;;1.25;1.25;;;;;20.94;68.54;100129.47;5093824;27;45498;-56
2022/09/15 00:23:10;;;;;;;;;1.00;1.00;;;;;20.91;68.30;100127.97;5099767;27;45317;-59
2022/09/15 00:25:42;;;;;;;;;2.25;2.25;;;;;20.92;68.37;100132.34;5099940;27;45589;-59
2022/09/15 00:28:07;;;;;;;;;2.00;2.00;;;;;20.78;68.77;100131.13;5098923;27;46127;-59
2022/09/15 00:30:32;;;;;;;;;1.50;1.50;;;;;20.75;68.58;100126.03;5099526;27;45507;-58
2022/09/15 00:32:58;;;;;;;;;3.00;3.00;;;;;20.78;68.66;100138.38;5098021;27;46058;-58
2022/09/15 00:35:23;;;;;;;;;3.00;1.50;;;;;20.80;68.60;100139.06;5099046;27;45452;-59
2022/09/15 00:37:48;;;;;;;;;3.00;1.75;;;;;20.76;68.18;100110.69;5097578;27;52596;-58
2022/09/15 00:40:14;;;;;;;;;2.75;2.75;;;;;20.86;68.04;100133.03;5099366;27;45418;-58
2022/09/15 00:42:39;;;;;;;;;3.00;3.00;;;;;20.89;68.20;100143.50;5097832;27;45435;-59
2022/09/15 00:45:05;;;;;;;;;3.00;3.00;;;;;20.80;68.66;100144.47;5100013;27;45317;-60
2022/09/15 00:47:36;;;;;;;;;4.00;3.00;;;;;20.65;68.98;100141.53;5097663;27;46510;-60
2022/09/15 00:50:13;;;;;;;;;3.50;2.75;;;;;20.49;69.54;100122.53;5092054;27;45390;-59
2022/09/15 00:52:50;;;;;;;;;7.33;5.33;;;;;20.42;70.07;100146.63;5096774;27;45372;-58
2022/09/15 00:55:36;;;;;;;;;5.67;5.67;;;;;20.39;70.18;100146.94;5098566;27;45333;-59
2022/09/15 00:58:11;;;;;;;;;7.00;5.00;;;;;20.30;70.07;100148.72;5098098;27;45480;-58
2022/09/15 01:00:42;;;;;;;;;5.00;5.00;;;;;20.38;70.26;100150.63;5098337;27;45443;-57
2022/09/15 01:03:08;;;;;;;;;7.33;7.33;;;;;20.40;69.91;100153.19;5098340;27;45474;-58
2022/09/15 01:05:38;;;;;;;;;8.50;7.00;;;;;20.41;70.00;100161.13;5098533;27;45264;-59
2022/09/15 01:08:08;;;;;;;;;3.00;3.00;;;;;20.35;70.33;100163.63;5096743;27;46167;-58
2022/09/15 01:10:36;;;;;;;;;8.00;8.00;;;;;20.35;70.11;100167.16;5100611;27;45467;-58
2022/09/15 01:13:08;;;;;;;;;6.00;6.00;;;;;20.39;69.61;100173.94;5098983;27;45343;-57
2022/09/15 01:15:53;;;;;;;;;7.75;7.00;;;;;20.38;69.76;100177.66;5098795;27;45341;-57
2022/09/15 01:18:56;;;;;;;;;8.33;8.33;;;;;20.32;70.39;100178.31;5097668;27;45996;-59
2022/09/15 01:21:39;;;;;;;;;6.00;6.00;;;;;20.26;70.64;100174.38;5097885;27;45709;-59
2022/09/15 01:24:43;;;;;;;;;6.00;6.00;;;;;20.21;71.00;100175.84;5097766;27;45273;-57
2022/09/15 01:27:42;;;;;;;;;7.00;5.67;;;;;20.13;70.92;100184.72;5097827;27;45408;-58
2022/09/15 01:30:14;;;;;;;;;5.00;5.00;;;;;20.20;70.67;100179.56;5096942;27;45479;-57
2022/09/15 01:33:11;;;;;;;;;5.67;5.67;;;;;20.11;70.70;100175.09;5097734;27;45473;-58
2022/09/15 01:35:55;;;;;;;;;5.00;3.33;;;;;20.06;71.08;100177.44;5091530;27;45420;-58
2022/09/15 01:38:32;;;;;;;;;6.67;5.00;;;;;20.02;70.90;100185.81;5076749;27;45461;-56
2022/09/15 01:41:15;;;;;;;;;4.67;4.67;;;;;19.92;71.07;100181.50;5088743;27;47394;-57
2022/09/15 01:43:58;;;;;;;;;9.00;5.00;;;;;19.81;71.35;100174.53;5097325;27;45356;-57
2022/09/15 01:46:30;;;;;;;;;4.00;4.00;;;;;19.88;70.57;100175.59;5096858;27;45286;-57
2022/09/15 01:48:57;;;;;;;;;2.25;2.25;;;;;19.94;70.48;100185.78;5093434;27;45479;-58
2022/09/15 01:51:25;;;;;;;;;4.00;4.00;;;;;19.93;71.01;100184.09;5075452;27;48371;-58
2022/09/15 01:53:53;;;;;;;;;4.00;4.00;;;;;19.85;71.43;100185.84;5077192;27;45345;-57
2022/09/15 01:56:19;;;;;;;;;4.00;4.00;;;;;19.84;71.20;100186.84;5077380;27;45372;-58
2022/09/15 01:58:48;;;;;;;;;2.67;2.67;;;;;19.87;70.92;100179.28;5080747;27;45396;-60
2022/09/15 02:01:43;;;;;;;;;2.67;2.67;;;;;19.93;71.00;100186.78;5096765;27;47256;-57
2022/09/15 02:04:28;;;;;;;;;4.00;4.00;;;;;19.83;71.19;100188.72;5098037;27;45222;-58
2022/09/15 02:07:29;;;;;;;;;2.00;2.00;;;;;19.71;71.59;100185.41;5096514;27;45605;-60
2022/09/15 02:10:13;;;;;;;;;5.67;5.67;;;;;19.69;71.47;100189.25;5097946;27;45634;-58
2022/09/15 02:12:56;;;;;;;;;5.33;5.33;;;;;19.63;71.62;100181.75;5097996;27;45407;-58
2022/09/15 02:15:35;;;;;;;;;6.00;4.67;;;;;19.61;71.12;100186.47;5095301;27;45258;-58
2022/09/15 02:18:04;;;;;;;;;7.33;5.67;;;;;19.60;71.21;100190.16;5097608;27;45478;-59
2022/09/15 02:20:46;;;;;;;;;7.33;7.33;;;;;19.56;71.11;100191.50;5097389;27;45525;-58
2022/09/15 02:23:34;;;;;;;;;7.00;7.00;;;;;19.57;70.46;100193.19;5097057;27;46387;-57
2022/09/15 02:26:23;;;;;;;;;15.00;10.33;;;;;19.56;70.29;100188.78;5095944;27;45314;-61
2022/09/15 02:28:51;;;;;;;;;14.00;10.00;;;;;19.52;70.04;100190.91;5081832;27;45267;-58
2022/09/15 02:31:19;;;;;;;;;11.33;11.00;;;;;19.31;70.83;100191.19;5082617;27;45451;-59
2022/09/15 02:34:05;;;;;;;;;11.00;10.00;;;;;19.24;70.86;100187.41;5095521;27;45302;-61
2022/09/15 02:36:31;;;;;;;;;9.00;9.00;;;;;19.34;70.43;100192.72;5078349;27;45354;-58
2022/09/15 02:39:04;;;;;;;;;12.33;12.33;;;;;19.37;70.34;100192.44;5075870;27;46912;-57
2022/09/15 02:41:31;;;;;;;;;14.33;14.33;;;;;19.30;70.39;100192.19;5076348;27;45449;-58
2022/09/15 02:43:57;;;;;;;;;17.33;14.00;;;;;19.23;70.54;100182.16;5076333;27;46526;-56
2022/09/15 02:46:23;;;;;;;;;10.33;10.33;;;;;19.21;70.35;100187.72;5076239;27;45392;-58
2022/09/15 02:48:49;;;;;;;;;16.33;14.67;;;;;19.18;70.01;100184.47;5093203;27;45473;-59
2022/09/15 02:51:16;;;;;;;;;20.00;16.67;;;;;19.22;69.96;100194.78;5097304;27;45696;-58
2022/09/15 02:53:42;;;;;;;;;13.00;11.00;;;;;19.21;70.14;100195.78;5096436;27;46227;-56
2022/09/15 02:56:07;;;;;;;;;13.67;12.00;;;;;19.19;70.23;100189.72;5096393;27;45409;-58
2022/09/15 02:58:33;;;;;;;;;15.00;12.67;;;;;19.18;69.93;100196.09;5096980;27;45427;-58
2022/09/15 03:01:04;;;;;;;;;17.00;12.00;;;;;19.00;69.99;100169.09;5096792;27;45373;-57
2022/09/15 03:03:33;;;;;;;;;14.50;13.00;;;;;19.07;70.33;100190.91;5093801;27;46404;-58
2022/09/15 03:06:15;;;;;;;;;13.67;12.00;;;;;19.10;69.90;100196.84;5084452;27;45424;-58
2022/09/15 03:08:55;;;;;;;;;13.33;12.33;;;;;19.12;69.75;100204.78;5078468;27;45396;-59
2022/09/15 03:11:23;;;;;;;;;9.67;9.67;;;;;19.05;69.63;100196.47;5076627;27;45619;-57
2022/09/15 03:13:53;;;;;;;;;16.00;12.33;;;;;18.95;69.49;100192.94;5076065;27;47140;-58
2022/09/15 03:16:19;;;;;;;;;14.00;12.00;;;;;18.92;69.86;100195.09;5075018;27;45308;-58
2022/09/15 03:18:44;;;;;;;;;14.67;13.00;;;;;18.90;69.69;100189.03;5076302;28;45277;-59
2022/09/15 03:21:12;;;;;;;;;12.00;10.00;;;;;18.86;68.79;100185.75;5076798;27;45620;-59
2022/09/15 03:23:39;;;;;;;;;11.33;10.67;;;;;18.78;68.44;100189.22;5093015;27;45374;-58
2022/09/15 03:26:07;;;;;;;;;11.67;9.33;;;;;18.63;68.69;100179.88;5096366;27;45450;-58
2022/09/15 03:28:33;;;;;;;;;11.00;11.00;;;;;18.70;68.96;100197.19;5094480;27;45388;-59
2022/09/15 03:31:00;;;;;;;;;12.00;10.67;;;;;18.73;68.47;100194.19;5076275;27;45322;-59
2022/09/15 03:33:26;;;;;;;;;13.67;10.67;;;;;18.66;68.52;100198.47;5108019;27;45431;-57
2022/09/15 03:35:52;;;;;;;;;8.33;8.33;;;;;18.63;68.43;100198.75;5117066;27;45326;-58
2022/09/15 03:38:18;;;;;;;;;9.00;6.00;;;;;18.55;68.50;100199.47;5117006;27;45249;-58
2022/09/15 03:40:58;;;;;;;;;10.67;10.67;;;;;18.45;68.87;100195.09;5094566;27;45431;-58
2022/09/15 03:43:23;;;;;;;;;5.33;5.33;;;;;18.47;68.85;100193.09;5094766;27;48227;-57
2022/09/15 03:45:49;;;;;;;;;8.67;7.67;;;;;18.47;69.16;100203.88;5094622;27;45542;-56
2022/09/15 03:48:14;;;;;;;;;11.00;9.67;;;;;18.48;68.81;100202.88;5076652;27;45314;-59
2022/09/15 03:50:39;;;;;;;;;15.33;13.00;;;;;18.45;69.11;100200.47;5079355;27;45492;-58
2022/09/15 03:53:05;;;;;;;;;10.67;10.67;;;;;18.46;69.06;100207.56;5078712;27;45622;-57
2022/09/15 03:55:30;;;;;;;;;15.00;12.00;;;;;18.47;68.96;100206.56;5093159;27;45337;-59
2022/09/15 03:57:55;;;;;;;;;12.67;12.67;;;;;18.48;68.46;100203.72;5079153;27;45344;-57
2022/09/15 04:00:22;;;;;;;;;10.33;8.67;;;;;18.47;68.37;100209.25;5083781;27;45382;-58
2022/09/15 04:02:47;;;;;;;;;12.33;10.00;;;;;18.42;68.51;100212.41;5099232;27;45507;-58
2022/09/15 04:05:13;;;;;;;;;14.33;14.33;;;;;18.37;68.13;100211.16;5099498;27;45259;-57
2022/09/15 04:07:39;;;;;;;;;14.00;11.00;;;;;18.36;68.55;100214.81;5098798;27;45394;-58
2022/09/15 04:10:08;;;;;;;;;11.00;11.00;;;;;18.35;68.76;100210.41;5097995;27;45322;-56
2022/09/15 04:12:35;;;;;;;;;18.67;14.33;;;;;18.35;68.48;100207.72;5079395;27;46262;-58
2022/09/15 04:15:01;;;;;;;;;15.33;11.33;;;;;18.22;68.97;100211.56;5078505;27;45307;-57
2022/09/15 04:17:27;;;;;;;;;14.00;14.00;;;;;18.26;69.31;100221.09;5078778;27;45345;-57
2022/09/15 04:19:53;;;;;;;;;13.67;11.67;;;;;18.27;68.28;100221.94;5091913;27;45480;-58
2022/09/15 04:22:18;;;;;;;;;13.33;12.33;;;;;18.18;68.77;100218.25;5098969;27;46183;-59
2022/09/15 04:24:46;;;;;;;;;19.00;17.33;;;;;18.13;68.56;100220.53;5097819;27;45344;-58
2022/09/15 04:27:12;;;;;;;;;16.00;16.00;;;;;18.10;68.36;100222.63;5100995;27;45428;-57
2022/09/15 04:29:38;;;;;;;;;14.67;14.67;;;;;18.08;69.01;100222.78;5098885;27;45372;-57
2022/09/15 04:32:03;;;;;;;;;20.67;17.00;;;;;18.10;68.07;100233.41;5098916;27;45357;-57
2022/09/15 04:34:29;;;;;;;;;14.00;14.00;;;;;18.14;68.83;100229.47;5098961;27;45371;-57
2022/09/15 04:36:54;;;;;;;;;19.33;19.00;;;;;18.01;67.49;100228.91;5097133;27;45314;-57
2022/09/15 04:39:19;;;;;;;;;17.00;14.67;;;;;17.90;67.57;100248.72;5080984;27;45693;-55
2022/09/15 04:41:45;;;;;;;;;18.00;15.00;;;;;17.86;67.74;100252.69;5099091;27;46294;-58
2022/09/15 04:44:10;;;;;;;;;14.00;13.67;;;;;17.83;67.38;100244.88;5098507;27;45329;-58
2022/09/15 04:46:36;;;;;;;;;12.00;12.00;;;;;17.87;68.20;100254.38;5088447;27;45420;-57
2022/09/15 04:49:01;;;;;;;;;20.67;15.00;;;;;17.90;68.00;100254.09;5098425;27;45608;-58
2022/09/15 04:51:27;;;;;;;;;18.67;17.00;;;;;17.92;68.24;100249.41;5091630;27;47957;-59
2022/09/15 04:53:52;;;;;;;;;19.33;15.67;;;;;17.99;67.50;100247.88;5090564;27;45473;-56
2022/09/15 04:56:20;;;;;;;;;19.67;18.33;;;;;17.94;67.50;100240.22;5102382;27;45346;-57
2022/09/15 04:58:52;;;;;;;;;18.00;18.00;;;;;18.00;68.20;100254.97;5119639;27;45543;-59
2022/09/15 05:01:20;;;;;;;;;18.67;16.67;;;;;18.02;67.54;100263.72;5106256;27;48052;-57
2022/09/15 05:03:46;;;;;;;;;19.00;16.00;;;;;18.01;68.02;100264.72;5095913;27;45440;-58
2022/09/15 05:06:14;;;;;;;;;20.67;18.67;;;;;18.00;67.87;100267.56;5077716;27;45264;-58
2022/09/15 05:08:40;;;;;;;;;14.00;14.00;;;;;17.92;67.94;100273.63;5079426;27;45771;-56
2022/09/15 05:11:11;;;;;;;;;17.00;15.67;;;;;17.85;67.69;100273.38;5096001;27;46840;-59
2022/09/15 05:13:38;;;;;;;;;15.67;15.33;;;;;17.81;68.20;100292.59;5096635;27;45872;-57
2022/09/15 05:16:10;;;;;;;;;14.00;14.00;;;;;17.84;68.38;100278.84;5084720;27;45594;-57
2022/09/15 05:18:37;;;;;;;;;14.67;14.00;;;;;17.87;68.02;100290.22;5096033;27;45297;-57
2022/09/15 05:21:04;;;;;;;;;17.33;16.33;;;;;17.84;68.30;100276.16;5099907;27;45408;-59
2022/09/15 05:23:31;;;;;;;;;17.67;15.33;;;;;17.83;68.50;100282.53;5086785;27;45460;-57
2022/09/15 05:25:57;;;;;;;;;21.00;18.00;;;;;17.78;68.97;100293.72;5097909;27;45540;-58
2022/09/15 05:28:23;;;;;;;;;15.00;15.00;;;;;17.79;69.62;100292.72;5098160;27;45340;-57
2022/09/15 05:30:52;;;;;;;;;17.67;16.67;;;;;17.70;69.17;100307.00;5097415;27;46052;-58
2022/09/15 05:33:19;;;;;;;;;13.33;13.33;;;;;17.51;69.96;100296.19;5102242;27;45461;-58
2022/09/15 05:35:55;;;;;;;;;16.67;15.00;;;;;17.50;69.83;100298.03;5082366;27;45475;-56
2022/09/15 05:38:22;;;;;;;;;18.67;16.33;;;;;17.51;70.10;100309.63;5083587;27;45331;-57
2022/09/15 05:40:48;;;;;;;;;16.67;15.00;;;;;17.48;70.48;100301.84;5098125;27;46114;-57
2022/09/15 05:43:14;;;;;;;;;18.67;15.33;;;;;17.47;70.17;100303.69;5097827;27;45452;-61
2022/09/15 05:45:43;;;;;;;;;19.67;15.67;;;;;17.47;70.48;100309.06;5098074;27;45413;-61
2022/09/15 05:48:09;;;;;;;;;19.67;18.67;;;;;17.45;70.26;100312.84;5097526;27;45372;-62
2022/09/15 05:50:38;;;;;;;;;19.67;17.67;;;;;17.41;70.00;100312.28;5092568;27;45314;-64
2022/09/15 05:53:06;;;;;;;;;18.33;15.67;;;;;17.28;70.91;100317.03;5089599;27;45389;-64
2022/09/15 05:55:36;;;;;;;;;15.00;15.00;;;;;17.24;70.81;100315.63;5093742;27;45495;-62
2022/09/15 05:58:02;;;;;;;;;19.33;18.00;;;;;17.08;71.25;100322.34;5098624;27;45465;-64
2022/09/15 06:00:28;;;;;;;;;16.33;16.33;;;;;17.08;71.34;100314.28;5111330;27;45783;-66
2022/09/15 06:02:54;;;;;;;;;16.67;16.00;;;;;17.03;71.61;100303.06;5114031;27;45563;-62
2022/09/15 06:05:19;;;;;;;;;23.00;21.33;;;;;17.09;71.69;100324.06;5119893;27;45442;-66
2022/09/15 06:07:45;;;;;;;;;17.33;16.67;;;;;16.96;71.83;100328.78;5105091;27;46029;-65
2022/09/15 06:10:10;;;;;;;;;18.00;17.67;;;;;16.93;72.11;100331.75;5083330;27;45627;-65
2022/09/15 06:12:35;;;;;;;;;17.00;17.00;;;;;16.96;71.96;100322.56;5085543;27;45398;-68
2022/09/15 06:15:01;;;;;;;;;22.33;19.00;;;;;17.13;71.36;100326.47;5083677;27;45554;-64
2022/09/15 06:17:27;;;;;;;;;19.00;19.00;;;;;17.16;71.43;100339.63;5095742;27;45473;-59
2022/09/15 06:19:53;;;;;;;;;20.67;20.00;;;;;17.17;71.08;100336.78;5089091;27;46550;-65
2022/09/15 06:22:19;;;;;;;;;22.67;21.00;;;;;17.04;71.15;100353.13;5084481;27;45394;-69
2022/09/15 06:24:44;;;;;;;;;26.00;18.00;;;;;17.00;71.33;100350.84;5096553;27;45384;-69
2022/09/15 06:27:10;;;;;;;;;19.67;17.00;;;;;16.99;71.78;100352.69;5093177;27;45407;-58
2022/09/15 06:29:35;;;;;;;;;26.00;23.00;;;;;17.02;71.80;100355.09;5087474;27;45350;-65
2022/09/15 06:32:01;;;;;;;;;20.33;17.67;;;;;17.12;71.31;100362.38;5084721;27;45484;-61
2022/09/15 06:34:31;;;;;;;;;28.00;23.67;;;;;17.16;70.97;100358.44;5066885;27;45556;-62
2022/09/15 06:36:58;;;;;;;;;25.00;22.67;;;;;17.09;70.63;100353.59;5092545;27;45440;-66
2022/09/15 06:39:24;;;;;;;;;22.67;20.67;;;;;17.16;70.51;100361.13;5092312;27;45359;-65
2022/09/15 06:41:49;;;;;;;;;24.67;19.00;;;;;17.21;69.90;100366.97;5091047;27;45417;-66
2022/09/15 06:44:21;;;;;;;;;27.67;23.67;;;;;17.19;69.66;100366.22;5097383;27;45662;-69
2022/09/15 06:46:47;;;;;;;;;25.67;19.67;;;;;17.13;70.08;100372.13;5091351;27;45449;-64
2022/09/15 06:49:22;;;;;;;;;22.33;20.33;;;;;17.12;70.19;100371.28;5093799;27;46602;-64
2022/09/15 06:51:51;;;;;;;;;20.67;20.33;;;;;17.21;70.15;100375.03;5089947;27;45541;-68
2022/09/15 06:54:17;;;;;;;;;25.33;22.00;;;;;17.18;69.83;100381.50;5084662;27;45686;-66
2022/09/15 06:56:43;;;;;;;;;21.33;20.00;;;;;17.12;69.87;100381.19;5094893;27;45447;-66
2022/09/15 06:59:13;;;;;;;;;22.67;21.00;;;;;17.04;69.99;100381.84;5088993;27;45453;-64
2022/09/15 07:01:39;;;;;;;;;27.00;22.67;;;;;17.12;69.82;100381.19;5085266;27;45255;-63
2022/09/15 07:04:08;;;;;;;;;24.67;23.00;;;;;17.21;69.99;100383.09;5087889;27;45409;-61
2022/09/15 07:06:43;;;;;;;;;19.00;17.00;;;;;17.24;69.29;100396.25;5092620;27;45724;-69
2022/09/15 07:09:10;;;;;;;;;27.00;25.33;;;;;17.25;69.06;100376.44;5098561;27;46728;-69
2022/09/15 07:11:35;;;;;;;;;28.00;25.00;;;;;17.36;69.33;100396.03;5095584;27;45475;-66
2022/09/15 07:14:01;;;;;;;;;31.33;25.33;;;;;17.40;68.98;100386.69;5079057;27;45494;-66
2022/09/15 07:16:27;;;;;;;;;24.00;22.33;;;;;17.50;69.12;100394.81;5092708;27;45831;-66
2022/09/15 07:19:07;;;;;;;;;20.33;19.00;;;;;17.56;68.17;100401.47;5090879;27;46169;-62
2022/09/15 07:21:45;;;;;;;;;21.33;19.67;;;;;17.59;68.11;100406.63;5080710;27;45247;-65
2022/09/15 07:24:11;;;;;;;;;29.67;26.67;;;;;17.49;67.77;100390.44;5093679;27;45357;-62
2022/09/15 07:26:36;;;;;;;;;25.67;24.00;;;;;17.55;68.39;100400.63;5108628;27;45492;-61
2022/09/15 07:29:05;;;;;;;;;27.67;22.67;;;;;17.66;68.00;100405.06;5098263;27;47416;-63
2022/09/15 07:31:34;;;;;;;;;25.00;23.67;;;;;17.75;67.96;100416.88;5100287;27;45218;-67
2022/09/15 07:34:01;;;;;;;;;27.33;25.67;;;;;17.76;67.27;100402.44;5087053;27;45520;-66
2022/09/15 07:36:27;;;;;;;;;24.67;22.67;;;;;17.86;66.72;100416.78;5102382;27;45582;-61
2022/09/15 07:38:52;;;;;;;;;22.67;20.33;;;;;17.91;66.72;100418.06;5084988;27;46262;-60
2022/09/15 07:41:21;;;;;;;;;25.33;25.33;;;;;17.94;66.03;100414.25;5090449;27;45619;-65
2022/09/15 07:43:50;;;;;;;;;23.33;20.67;;;;;17.98;65.97;100421.06;5095321;27;45671;-67
2022/09/15 07:46:17;;;;;;;;;26.00;20.00;;;;;17.95;66.83;100419.47;5098556;27;45464;-66
2022/09/15 07:48:50;;;;;;;;;21.00;20.00;;;;;18.05;66.31;100418.66;5085723;27;45350;-67
2022/09/15 07:51:17;;;;;;;;;21.33;21.33;;;;;18.07;66.30;100422.91;5088404;27;45559;-68
2022/09/15 07:53:45;;;;;;;;;29.67;24.33;;;;;18.14;65.70;100424.09;5098522;27;45424;-67
2022/09/15 07:56:10;;;;;;;;;26.33;25.33;;;;;18.17;65.88;100428.34;5099928;27;45538;-68
2022/09/15 07:58:36;;;;;;;;;25.00;22.33;;;;;18.23;66.03;100436.72;5099136;27;46042;-66
2022/09/15 08:01:07;;;;;;;;;28.00;24.67;;;;;18.31;64.95;100429.78;5094637;27;45502;-68
2022/09/15 08:03:33;;;;;;;;;24.67;23.00;;;;;18.38;65.00;100430.94;5089244;27;45519;-68
2022/09/15 08:06:00;;;;;;;;;25.00;21.67;;;;;18.44;63.92;100430.34;5094757;27;45548;-70
2022/09/15 08:08:26;;;;;;;;;26.33;23.00;;;;;18.52;64.15;100433.22;5098404;27;46266;-65
2022/09/15 08:10:51;;;;;;;;;26.00;21.67;;;;;18.46;63.68;100421.13;5095661;27;45382;-65
2022/09/15 08:13:17;;;;;;;;;20.67;19.67;;;;;18.58;63.25;100443.41;5090989;27;45364;-63
2022/09/15 08:15:43;;;;;;;;;27.00;24.33;;;;;18.56;63.83;100413.91;5098408;27;45353;-63
2022/09/15 08:18:09;;;;;;;;;23.33;22.33;;;;;18.70;63.35;100430.69;5097591;27;46178;-61
2022/09/15 08:20:37;;;;;;;;;27.33;22.00;;;;;18.73;63.01;100439.31;5093258;27;45420;-68
2022/09/15 08:23:03;;;;;;;;;21.33;21.33;;;;;18.77;62.20;100438.06;5096712;27;45557;-68
2022/09/15 08:25:29;;;;;;;;;24.33;22.33;;;;;18.75;61.62;100437.38;5096910;27;45343;-68
2022/09/15 08:27:55;;;;;;;;;20.00;17.67;;;;;18.81;62.04;100434.09;5097074;27;45656;-67
2022/09/15 08:30:21;;;;;;;;;20.00;17.33;;;;;19.09;61.79;100463.84;5096966;27;45649;-65
2022/09/15 08:32:47;;;;;;;;;22.00;18.33;;;;;19.31;60.96;100474.31;5096640;27;45414;-68
2022/09/15 08:35:16;;;;;;;;;12.33;12.33;;;;;19.54;59.61;100460.50;5086952;27;45378;-68
2022/09/15 08:37:42;;;;;;;;;20.00;19.00;;;;;19.74;59.70;100464.84;5103676;27;45739;-66
2022/09/15 08:40:22;;;;;;;;;20.67;17.33;;;;;19.79;56.73;100467.94;5095975;27;45460;-67
2022/09/15 08:42:51;;;;;;;;;15.67;14.00;;;;;19.90;56.73;100470.44;5098617;27;45399;-68
2022/09/15 08:45:23;;;;;;;;;12.33;11.67;;;;;20.05;56.47;100476.19;5098853;27;45346;-69
2022/09/15 08:47:54;;;;;;;;;12.67;12.00;;;;;19.98;55.16;100457.06;5096422;27;45596;-68
2022/09/15 08:50:32;;;;;;;;;17.00;11.33;;;;;20.26;56.59;100475.97;5094957;27;45442;-66
2022/09/15 08:53:08;;;;;;;;;11.00;9.67;;;;;20.50;56.26;100484.38;5099145;27;45260;-63
2022/09/15 08:55:47;;;;;;;;;4.33;4.33;;;;;20.69;54.61;100474.41;5100858;27;45442;-64
2022/09/15 08:58:17;;;;;;;;;7.67;6.33;;;;;20.77;52.72;100485.31;5077755;27;46266;-68
2022/09/15 09:00:46;;;;;;;;;6.67;5.00;;;;;20.76;52.19;100484.47;5099695;27;45512;-63
2022/09/15 09:03:51;;;;;;;;;9.00;9.00;;;;;20.76;53.71;100472.81;5094803;27;45517;-69
2022/09/15 09:06:50;;;;;;;;;12.33;10.67;;;;;20.97;53.42;100477.91;5058612;27;45389;-65
2022/09/15 09:09:37;;;;;;;;;10.00;8.00;;;;;21.22;51.09;100479.78;5043251;27;45311;-64
2022/09/15 09:12:18;;;;;;;;;8.33;6.00;;;;;21.38;50.91;100471.00;5088997;27;45642;-64
2022/09/15 09:15:06;;;;;;;;;6.67;6.67;;;;;21.51;51.50;100476.84;5082958;27;45700;-62
2022/09/15 09:17:41;;;;;;;;;7.00;7.00;;;;;21.74;51.84;100483.38;5092907;27;45397;-62
2022/09/15 09:20:25;;;;;;;;;7.00;7.00;;;;;21.84;50.24;100477.84;5091318;27;46591;-65
2022/09/15 09:22:53;;;;;;;;;10.00;9.00;;;;;21.83;51.36;100470.75;5098584;27;45349;-64
2022/09/15 09:25:19;;;;;;;;;9.67;9.67;;;;;21.99;50.20;100475.38;5105449;27;45252;-64
2022/09/15 09:27:46;;;;;;;;;6.75;6.50;;;;;22.10;52.40;100472.44;5100153;27;45484;-64
2022/09/15 09:30:21;;;;;;;;;11.50;8.00;;;;;22.26;50.08;100475.19;5098121;27;45407;-66
2022/09/15 09:32:59;;;;;;;;;8.00;7.00;;;;;22.16;51.77;100474.50;5102207;27;45307;-66
2022/09/15 09:35:40;;;;;;;;;6.00;6.00;;;;;22.33;50.64;100476.25;5098047;27;45710;-64
2022/09/15 09:38:08;;;;;;;;;9.25;8.25;;;;;22.40;50.93;100480.97;5082072;27;45391;-66
2022/09/15 09:40:36;;;;;;;;;7.00;7.00;;;;;22.45;49.04;100478.66;5116890;27;45351;-64
2022/09/15 09:43:01;;;;;;;;;5.50;5.50;;;;;22.47;49.74;100484.75;5110767;27;45270;-66
2022/09/15 09:45:27;;;;;;;;;7.00;6.00;;;;;22.51;50.73;100483.38;5105093;27;45205;-65
2022/09/15 09:48:05;;;;;;;;;6.25;6.25;;;;;22.65;50.26;100480.88;5104258;27;45352;-66
2022/09/15 09:50:37;;;;;;;;;4.25;4.25;;;;;22.75;49.34;100482.59;5096317;27;45622;-63
2022/09/15 09:53:24;;;;;;;;;4.75;3.00;;;;;22.52;47.42;100485.09;5097452;27;45448;-67
2022/09/15 09:55:52;;;;;;;;;4.25;4.25;;;;;22.48;48.41;100489.16;5097218;27;45364;-64
2022/09/15 09:58:20;;;;;;;;;5.50;3.50;;;;;22.46;47.59;100493.88;5097880;27;45355;-65
2022/09/15 10:00:47;;;;;;;;;5.00;5.00;;;;;22.55;49.64;100484.78;5097456;27;46088;-63
2022/09/15 10:03:22;;;;;;;;;6.00;5.50;;;;;22.56;48.92;100487.31;5097182;27;45496;-69
2022/09/15 10:06:11;;;;;;;;;6.25;6.25;;;;;22.40;47.83;100494.53;5096664;27;45278;-64
2022/09/15 10:08:53;;;;;;;;;5.00;5.00;;;;;22.43;49.52;100481.53;5097480;27;45599;-68
2022/09/15 10:11:19;;;;;;;;;5.25;5.25;;;;;22.47;49.30;100490.16;5096933;27;46148;-65
2022/09/15 10:13:51;;;;;;;;;4.50;4.50;;;;;22.66;49.81;100481.75;5097413;27;45431;-65
2022/09/15 10:16:18;;;;;;;;;4.50;4.50;;;;;22.81;48.22;100485.50;5097877;27;45232;-65
2022/09/15 10:18:48;;;;;;;;;4.00;4.00;;;;;22.89;48.34;100476.53;5097812;27;45344;-67
2022/09/15 10:21:14;;;;;;;;;4.75;4.75;;;;;23.03;47.88;100483.16;5097047;27;45557;-67
2022/09/15 10:23:41;;;;;;;;;4.60;4.60;;;;;23.01;47.04;100474.34;5097151;27;45224;-67
2022/09/15 10:26:15;;;;;;;;;6.00;5.00;;;;;22.95;48.18;100473.16;5109370;27;45355;-67
2022/09/15 10:28:41;;;;;;;;;2.50;2.00;;;;;22.81;46.32;100473.81;5077457;27;45678;-63
2022/09/15 10:31:12;;;;;;;;;9.00;4.00;;;;;22.58;47.09;100479.88;5082926;27;46337;-64
2022/09/15 10:33:40;;;;;;;;;3.75;3.75;;;;;22.65;47.03;100471.91;5096023;27;45421;-63
2022/09/15 10:36:20;;;;;;;;;6.50;5.50;;;;;22.72;48.02;100478.38;5096959;27;45567;-65
2022/09/15 10:38:48;;;;;;;;;5.00;4.00;;;;;22.70;45.97;100484.97;5097105;27;45431;-63
2022/09/15 10:41:28;;;;;;;;;4.00;4.00;;;;;22.79;45.91;100483.97;5096245;27;45579;-63
2022/09/15 10:44:08;;;;;;;;;2.50;2.50;;;;;23.02;46.82;100476.03;5097017;27;45311;-68
2022/09/15 10:46:36;;;;;;;;;4.50;2.25;;;;;23.21;46.53;100481.13;5096849;27;45417;-64
2022/09/15 10:49:21;;;;;;;;;4.00;4.00;;;;;23.36;45.28;100481.28;5097259;27;45517;-63
2022/09/15 10:52:22;;;;;;;;;3.50;3.50;;;;;23.38;46.59;100480.09;5095475;27;47535;-66
2022/09/15 10:55:22;;;;;;;;;6.25;6.25;;;;;23.18;45.61;100462.50;5089991;27;45552;-64
2022/09/15 10:58:06;;;;;;;;;7.25;5.50;;;;;23.29;45.89;100478.41;5117420;27;45361;-69
2022/09/15 11:00:50;;;;;;;;;5.75;5.00;;;;;23.14;47.02;100485.53;5110948;27;45305;-66
2022/09/15 11:03:38;;;;;;;;;6.25;4.75;;;;;23.10;45.08;100489.63;5098581;27;45710;-74
2022/09/15 11:06:18;;;;;;;;;7.75;7.00;;;;;23.32;45.84;100482.66;5093443;27;45338;-67
2022/09/15 11:09:03;;;;;;;;;5.25;3.50;;;;;23.24;45.42;100475.38;5077911;27;45539;-69
2022/09/15 11:12:01;;;;;;;;;5.25;4.00;;;;;23.59;45.60;100473.31;5076527;28;45312;-67
2022/09/15 11:14:59;;;;;;;;;4.00;4.00;;;;;23.82;44.86;100468.81;5068444;28;46269;-69
2022/09/15 11:17:43;;;;;;;;;3.75;3.75;;;;;23.89;44.69;100469.00;5076444;28;45368;-64
2022/09/15 11:20:20;;;;;;;;;4.25;4.00;;;;;23.95;44.27;100462.84;5076364;28;45404;-67
2022/09/15 11:23:24;;;;;;;;;6.75;5.50;;;;;23.89;45.01;100456.25;5077065;27;45590;-67
2022/09/15 11:25:57;;;;;;;;;3.50;3.50;;;;;24.15;44.72;100457.84;5066493;28;46137;-68
2022/09/15 11:28:56;;;;;;;;;4.60;4.60;;;;;24.35;43.54;100453.69;5076201;27;45310;-68
2022/09/15 11:31:38;;;;;;;;;3.60;3.60;;;;;24.28;43.33;100455.41;5068917;27;45543;-64
2022/09/15 11:34:22;;;;;;;;;3.00;3.00;;;;;24.22;43.86;100456.97;5077111;27;45357;-65
2022/09/15 11:37:02;;;;;;;;;7.25;5.25;;;;;24.26;43.83;100441.16;5076267;27;46108;-62